Time,TemperatureF,DewpointF,PressureIn,WindDirection,WindDirectionDegrees,WindSpeedMPH,WindSpeedGustMPH,Humidity,HourlyPrecipIn,Conditions,Clouds,dailyrainin,SoftwareType,DateUTC
2013-03-25 00:00:00,24.6,17.2,29.11,NNE,23,3.0,3.0,73,0.00,,,0.00,meteohub,2013-03-25 04:00:00,
2013-03-25 00:05:00,25.5,18.3,29.11,NNE,23,3.0,3.0,74,0.00,,,0.00,meteohub,2013-03-25 04:05:00,
2013-03-25 00:10:00,26.4,19.6,29.11,North,0,3.0,3.0,75,0.00,,,0.00,meteohub,2013-03-25 04:10:00,
2013-03-25 00:15:00,27.5,20.3,29.11,NNE,23,5.0,5.0,74,0.00,,,0.00,meteohub,2013-03-25 04:15:00,
2013-03-25 00:20:00,28.0,20.8,29.11,NNE,23,5.0,5.0,74,0.00,,,0.00,meteohub,2013-03-25 04:20:00,
2013-03-25 00:25:00,28.4,20.8,29.11,NNE,23,5.0,5.0,73,0.00,,,0.00,meteohub,2013-03-25 04:25:00,
2013-03-25 00:30:00,28.6,21.0,29.11,NNE,23,3.0,5.0,73,0.00,,,0.00,meteohub,2013-03-25 04:30:00,
2013-03-25 00:35:00,28.8,21.2,29.12,NE,45,7.0,7.0,73,0.00,,,0.00,meteohub,2013-03-25 04:35:00,
2013-03-25 00:40:00,28.9,21.0,29.12,NE,45,3.0,5.0,72,0.00,,,0.00,meteohub,2013-03-25 04:40:00,
2013-03-25 00:45:00,29.1,21.2,29.12,NNE,23,3.0,7.0,72,0.00,,,0.00,meteohub,2013-03-25 04:45:00,
2013-03-25 00:50:00,29.1,21.2,29.12,NNE,23,5.0,7.0,72,0.00,,,0.00,meteohub,2013-03-25 04:50:00,
2013-03-25 00:55:00,29.3,21.7,29.11,NE,45,4.0,6.0,73,0.00,,,0.00,meteohub,2013-03-25 04:55:00,
2013-03-25 01:00:00,29.5,21.9,29.11,NNE,23,4.0,6.0,73,0.00,,,0.00,meteohub,2013-03-25 05:00:00,
2013-03-25 01:05:00,29.5,21.9,29.11,North,0,5.0,8.0,73,0.00,,,0.00,meteohub,2013-03-25 05:05:00,
2013-03-25 01:10:00,29.7,22.1,29.12,North,0,5.0,8.0,73,0.00,,,0.00,meteohub,2013-03-25 05:10:00,
2013-03-25 01:15:00,29.7,22.1,29.12,NNE,23,4.0,8.0,73,0.00,,,0.00,meteohub,2013-03-25 05:15:00,
2013-03-25 01:20:00,29.8,22.3,29.12,NNE,23,7.0,8.0,73,0.00,,,0.00,meteohub,2013-03-25 05:20:00,
2013-03-25 01:25:00,29.8,22.3,29.12,NNE,23,7.0,7.0,73,0.00,,,0.00,meteohub,2013-03-25 05:25:00,
2013-03-25 01:30:00,29.8,22.3,29.12,NNE,23,6.0,7.0,73,0.00,,,0.00,meteohub,2013-03-25 05:30:00,
2013-03-25 01:35:00,30.0,22.5,29.11,North,0,4.0,9.0,73,0.00,,,0.00,meteohub,2013-03-25 05:35:00,
2013-03-25 01:40:00,30.0,22.8,29.11,NNE,23,7.0,9.0,74,0.00,,,0.00,meteohub,2013-03-25 05:40:00,
2013-03-25 01:45:00,30.0,22.8,29.11,NE,45,5.0,8.0,74,0.00,,,0.00,meteohub,2013-03-25 05:45:00,
2013-03-25 01:50:00,30.0,22.8,29.11,NNE,23,6.0,8.0,74,0.00,,,0.00,meteohub,2013-03-25 05:50:00,
2013-03-25 01:55:00,30.2,23.0,29.11,North,0,3.0,12.0,74,0.00,,,0.00,meteohub,2013-03-25 05:55:00,
2013-03-25 02:00:00,30.2,23.0,29.11,NE,45,10.0,12.0,74,0.00,,,0.00,meteohub,2013-03-25 06:00:00,
2013-03-25 02:05:00,30.4,23.2,29.11,NE,45,7.0,11.0,74,0.00,,,0.00,meteohub,2013-03-25 06:05:00,
2013-03-25 02:10:00,30.6,23.5,29.10,NE,45,7.0,11.0,75,0.00,,,0.00,meteohub,2013-03-25 06:10:00,
2013-03-25 02:15:00,30.6,23.5,29.10,North,0,5.0,10.0,75,0.00,,,0.00,meteohub,2013-03-25 06:15:00,
2013-03-25 02:20:00,30.7,23.4,29.10,NNE,23,7.0,10.0,74,0.00,,,0.00,meteohub,2013-03-25 06:20:00,
2013-03-25 02:25:00,30.9,23.5,29.10,NNE,23,8.0,9.0,74,0.00,,,0.00,meteohub,2013-03-25 06:25:00,
2013-03-25 02:31:00,30.9,23.5,29.11,ENE,68,12.0,12.0,74,0.00,,,0.00,meteohub,2013-03-25 06:31:00,
2013-03-25 02:36:00,31.1,23.7,29.11,NNE,23,10.0,15.0,74,0.00,,,0.00,meteohub,2013-03-25 06:36:00,
2013-03-25 02:41:00,31.1,23.7,29.11,NE,45,4.0,15.0,74,0.00,,,0.00,meteohub,2013-03-25 06:41:00,
2013-03-25 02:46:00,31.3,23.9,29.11,North,0,6.0,15.0,74,0.00,,,0.00,meteohub,2013-03-25 06:46:00,
2013-03-25 02:51:00,31.3,23.9,29.11,NE,45,6.0,15.0,74,0.00,,,0.00,meteohub,2013-03-25 06:51:00,
2013-03-25 02:56:00,31.3,23.9,29.11,North,0,7.0,14.0,74,0.00,,,0.00,meteohub,2013-03-25 06:56:00,
2013-03-25 03:01:00,31.3,23.9,29.11,North,0,4.0,14.0,74,0.00,,,0.00,meteohub,2013-03-25 07:01:00,
2013-03-25 03:06:00,31.3,23.9,29.11,NNE,23,4.0,10.0,74,0.00,,,0.00,meteohub,2013-03-25 07:06:00,
2013-03-25 03:11:00,31.3,23.9,29.11,North,0,5.0,10.0,74,0.00,,,0.00,meteohub,2013-03-25 07:11:00,
2013-03-25 03:16:00,31.3,23.9,29.11,NE,45,5.0,9.0,74,0.00,,,0.00,meteohub,2013-03-25 07:16:00,
2013-03-25 03:21:00,31.3,23.9,29.11,North,0,3.0,9.0,74,0.00,,,0.00,meteohub,2013-03-25 07:21:00,
2013-03-25 03:26:00,31.3,23.9,29.11,North,0,4.0,10.0,74,0.00,,,0.00,meteohub,2013-03-25 07:26:00,
2013-03-25 03:31:00,31.3,23.9,29.11,NNE,23,7.0,10.0,74,0.00,,,0.00,meteohub,2013-03-25 07:31:00,
2013-03-25 03:36:00,31.3,24.3,29.11,NNW,338,4.0,10.0,75,0.00,,,0.00,meteohub,2013-03-25 07:36:00,
2013-03-25 03:41:00,31.1,24.1,29.11,ENE,68,2.0,10.0,75,0.00,,,0.00,meteohub,2013-03-25 07:41:00,
2013-03-25 03:46:00,31.3,24.3,29.11,NNE,23,3.0,7.0,75,0.00,,,0.00,meteohub,2013-03-25 07:46:00,
2013-03-25 03:51:00,31.1,24.1,29.10,North,0,5.0,7.0,75,0.00,,,0.00,meteohub,2013-03-25 07:51:00,
2013-03-25 03:56:00,31.1,23.7,29.10,NNE,23,8.0,8.0,74,0.00,,,0.00,meteohub,2013-03-25 07:56:00,
2013-03-25 04:01:00,31.1,23.7,29.10,North,0,8.0,8.0,74,0.00,,,0.00,meteohub,2013-03-25 08:01:00,
2013-03-25 04:06:00,31.1,23.7,29.10,North,0,8.0,10.0,74,0.00,,,0.00,meteohub,2013-03-25 08:06:00,
2013-03-25 04:11:00,30.9,23.5,29.10,NE,45,8.0,10.0,74,0.00,,,0.00,meteohub,2013-03-25 08:11:00,
2013-03-25 04:17:00,30.9,23.5,29.10,NE,45,6.0,10.0,74,0.00,,,0.00,meteohub,2013-03-25 08:17:00,
2013-03-25 04:22:00,30.9,23.5,29.10,NNE,23,13.0,13.0,74,0.00,,,0.00,meteohub,2013-03-25 08:22:00,
2013-03-25 04:27:00,30.7,23.4,29.10,NNE,23,7.0,15.0,74,0.00,,,0.00,meteohub,2013-03-25 08:27:00,
2013-03-25 04:32:00,30.6,23.5,29.10,North,0,9.0,15.0,75,0.00,,,0.00,meteohub,2013-03-25 08:32:00,
2013-03-25 04:37:00,30.6,23.5,29.10,NNE,23,8.0,18.0,75,0.00,,,0.00,meteohub,2013-03-25 08:37:00,
2013-03-25 04:42:00,30.6,23.5,29.10,NNE,23,4.0,18.0,75,0.00,,,0.00,meteohub,2013-03-25 08:42:00,
2013-03-25 04:47:00,30.4,23.4,29.10,NNE,23,8.0,18.0,75,0.00,,,0.00,meteohub,2013-03-25 08:47:00,
2013-03-25 04:52:00,30.2,23.5,29.09,NNE,23,9.0,18.0,76,0.00,,,0.00,meteohub,2013-03-25 08:52:00,
2013-03-25 04:57:00,30.2,23.5,29.09,NE,45,8.0,10.0,76,0.00,,,0.00,meteohub,2013-03-25 08:57:00,
2013-03-25 05:03:00,30.0,23.4,29.09,North,0,7.0,10.0,76,0.00,,,0.00,meteohub,2013-03-25 09:03:00,
2013-03-25 05:08:00,30.0,23.7,29.09,NNE,23,6.0,10.0,77,0.00,,,0.00,meteohub,2013-03-25 09:08:00,
2013-03-25 05:13:00,29.8,23.5,29.09,NNE,23,10.0,10.0,77,0.00,,,0.00,meteohub,2013-03-25 09:13:00,
2013-03-25 05:18:00,29.8,23.5,29.09,NE,45,5.0,10.0,77,0.00,,,0.00,meteohub,2013-03-25 09:18:00,
2013-03-25 05:23:00,29.8,23.5,29.09,NNE,23,11.0,14.0,77,0.00,,,0.00,meteohub,2013-03-25 09:23:00,
2013-03-25 05:28:00,29.8,23.5,29.09,NNE,23,3.0,14.0,77,0.00,,,0.00,meteohub,2013-03-25 09:28:00,
2013-03-25 05:33:00,29.8,23.5,29.08,North,0,3.0,11.0,77,0.00,,,0.00,meteohub,2013-03-25 09:33:00,
2013-03-25 05:38:00,29.8,23.9,29.08,NNE,23,6.0,11.0,78,0.00,,,0.00,meteohub,2013-03-25 09:38:00,
2013-03-25 05:43:00,29.8,23.9,29.08,South,180,9.0,9.0,78,0.00,,,0.00,meteohub,2013-03-25 09:43:00,
2013-03-25 05:48:00,29.8,23.9,29.08,North,0,4.0,5.0,78,0.00,,,0.00,meteohub,2013-03-25 09:48:00,
2013-03-25 05:53:00,29.8,23.5,29.08,NE,45,3.0,11.0,77,0.00,,,0.00,meteohub,2013-03-25 09:53:00,
2013-03-25 05:58:00,29.8,23.5,29.08,NNE,23,2.0,11.0,77,0.00,,,0.00,meteohub,2013-03-25 09:58:00,
2013-03-25 06:03:00,29.8,23.5,29.08,NW,315,0.0,9.0,77,0.00,,,0.00,meteohub,2013-03-25 10:03:00,
2013-03-25 06:08:00,29.8,23.5,29.08,NNE,23,3.0,9.0,77,0.00,,,0.00,meteohub,2013-03-25 10:08:00,
2013-03-25 06:13:00,29.8,23.5,29.08,NNE,23,4.0,7.0,77,0.00,,,0.00,meteohub,2013-03-25 10:13:00,
2013-03-25 06:18:00,29.8,23.5,29.08,North,0,2.0,7.0,77,0.00,,,0.00,meteohub,2013-03-25 10:18:00,
2013-03-25 06:23:00,29.8,23.5,29.08,NNE,23,6.0,7.0,77,0.00,,,0.00,meteohub,2013-03-25 10:23:00,
2013-03-25 06:28:00,29.8,23.5,29.08,North,0,2.0,7.0,77,0.00,,,0.00,meteohub,2013-03-25 10:28:00,
2013-03-25 06:33:00,29.8,23.5,29.09,NNE,23,6.0,7.0,77,0.00,,,0.00,meteohub,2013-03-25 10:33:00,
2013-03-25 06:38:00,30.0,23.7,29.09,NNE,23,3.0,8.0,77,0.00,,,0.00,meteohub,2013-03-25 10:38:00,
2013-03-25 06:44:00,30.0,23.7,29.09,NNE,23,4.0,8.0,77,0.00,,,0.00,meteohub,2013-03-25 10:44:00,
2013-03-25 06:49:00,30.0,23.7,29.09,North,0,6.0,8.0,77,0.00,,,0.00,meteohub,2013-03-25 10:49:00,
2013-03-25 06:54:00,29.8,23.2,29.09,NNE,23,2.0,7.0,76,0.00,,,0.00,meteohub,2013-03-25 10:54:00,
2013-03-25 06:59:00,29.8,23.2,29.09,NNW,338,5.0,7.0,76,0.00,,,0.00,meteohub,2013-03-25 10:59:00,
2013-03-25 07:04:00,29.8,23.2,29.09,North,0,6.0,7.0,76,0.00,,,0.00,meteohub,2013-03-25 11:04:00,
2013-03-25 07:09:00,29.8,23.2,29.09,North,0,6.0,7.0,76,0.00,,,0.00,meteohub,2013-03-25 11:09:00,
2013-03-25 07:14:00,29.8,23.2,29.09,North,0,2.0,6.0,76,0.00,,,0.00,meteohub,2013-03-25 11:14:00,
2013-03-25 07:19:00,29.8,23.2,29.09,NW,315,3.0,6.0,76,0.00,,,0.00,meteohub,2013-03-25 11:19:00,
2013-03-25 07:24:00,29.8,23.2,29.09,NE,45,3.0,6.0,76,0.00,,,0.00,meteohub,2013-03-25 11:24:00,
2013-03-25 07:29:00,29.8,23.2,29.09,NNE,23,3.0,5.0,76,0.00,,,0.00,meteohub,2013-03-25 11:29:00,
2013-03-25 07:34:00,29.7,23.0,29.10,NE,45,3.0,7.0,76,0.00,,,0.00,meteohub,2013-03-25 11:34:00,
2013-03-25 07:39:00,29.7,23.4,29.10,NNE,23,7.0,7.0,77,0.00,,,0.00,meteohub,2013-03-25 11:39:00,
2013-03-25 07:44:00,29.7,23.4,29.10,North,0,5.0,7.0,77,0.00,,,0.00,meteohub,2013-03-25 11:44:00,
2013-03-25 07:49:00,29.3,23.0,29.10,NNE,23,6.0,7.0,77,0.00,,,0.00,meteohub,2013-03-25 11:49:00,
2013-03-25 07:54:00,29.5,23.2,29.09,North,0,4.0,7.0,77,0.00,,,0.00,meteohub,2013-03-25 11:54:00,
2013-03-25 07:59:00,29.5,23.2,29.09,NNE,23,6.0,7.0,77,0.00,,,0.00,meteohub,2013-03-25 11:59:00,
2013-03-25 08:04:00,29.5,23.2,29.09,NE,45,3.0,8.0,77,0.00,,,0.00,meteohub,2013-03-25 12:04:00,
2013-03-25 08:09:00,29.3,23.0,29.09,North,0,4.0,8.0,77,0.00,,,0.00,meteohub,2013-03-25 12:09:00,
2013-03-25 08:14:00,29.5,23.2,29.10,NNE,23,9.0,9.0,77,0.00,,,0.00,meteohub,2013-03-25 12:14:00,
2013-03-25 08:19:00,29.5,23.2,29.10,NNE,23,2.0,9.0,77,0.00,,,0.00,meteohub,2013-03-25 12:19:00,
2013-03-25 08:24:00,29.3,23.0,29.10,NNE,23,4.0,9.0,77,0.00,,,0.00,meteohub,2013-03-25 12:24:00,
2013-03-25 08:29:00,29.5,23.2,29.10,North,0,4.0,9.0,77,0.00,,,0.00,meteohub,2013-03-25 12:29:00,
2013-03-25 08:34:00,29.5,23.2,29.11,NE,45,3.0,11.0,77,0.00,,,0.00,meteohub,2013-03-25 12:34:00,
2013-03-25 08:39:00,29.5,23.2,29.11,NNE,23,6.0,11.0,77,0.00,,,0.00,meteohub,2013-03-25 12:39:00,
2013-03-25 08:44:00,29.5,23.2,29.11,North,0,5.0,9.0,77,0.00,,,0.00,meteohub,2013-03-25 12:44:00,
2013-03-25 08:49:00,29.7,23.4,29.11,North,0,2.0,9.0,77,0.00,,,0.00,meteohub,2013-03-25 12:49:00,
2013-03-25 08:54:00,29.7,23.4,29.11,North,0,6.0,13.0,77,0.00,,,0.00,meteohub,2013-03-25 12:54:00,
2013-03-25 08:59:00,29.7,23.4,29.11,North,0,6.0,13.0,77,0.00,,,0.00,meteohub,2013-03-25 12:59:00,
2013-03-25 09:04:00,29.7,23.4,29.11,North,0,3.0,14.0,77,0.00,,,0.00,meteohub,2013-03-25 13:04:00,
2013-03-25 09:09:00,29.7,23.4,29.11,North,0,4.0,14.0,77,0.00,,,0.00,meteohub,2013-03-25 13:09:00,
2013-03-25 09:14:00,29.8,23.9,29.11,North,0,3.0,11.0,78,0.00,,,0.00,meteohub,2013-03-25 13:14:00,
2013-03-25 09:19:00,29.7,23.7,29.11,North,0,4.0,11.0,78,0.00,,,0.00,meteohub,2013-03-25 13:19:00,
2013-03-25 09:24:00,29.8,23.9,29.11,North,0,3.0,12.0,78,0.00,,,0.00,meteohub,2013-03-25 13:24:00,
2013-03-25 09:29:00,29.8,23.9,29.11,North,0,5.0,12.0,78,0.00,,,0.00,meteohub,2013-03-25 13:29:00,
2013-03-25 09:34:00,29.8,23.9,29.12,NNE,23,9.0,13.0,78,0.00,,,0.00,meteohub,2013-03-25 13:34:00,
2013-03-25 09:39:00,29.8,23.9,29.12,NNE,23,14.0,14.0,78,0.00,,,0.00,meteohub,2013-03-25 13:39:00,
2013-03-25 09:44:00,29.8,23.9,29.12,NNE,23,14.0,16.0,78,0.00,,,0.00,meteohub,2013-03-25 13:44:00,
2013-03-25 09:49:00,29.8,23.9,29.12,NNW,338,3.0,16.0,78,0.00,,,0.00,meteohub,2013-03-25 13:49:00,
2013-03-25 09:54:00,30.2,24.3,29.12,NNE,23,3.0,16.0,78,0.00,,,0.00,meteohub,2013-03-25 13:54:00,
2013-03-25 09:59:00,30.6,24.3,29.12,NNE,23,6.0,16.0,77,0.00,,,0.00,meteohub,2013-03-25 13:59:00,
2013-03-25 10:04:00,30.6,24.3,29.12,NE,45,8.0,11.0,77,0.00,,,0.00,meteohub,2013-03-25 14:04:00,
2013-03-25 10:10:00,30.6,24.3,29.12,NNE,23,4.0,11.0,77,0.00,,,0.00,meteohub,2013-03-25 14:10:00,
2013-03-25 10:15:00,30.7,24.4,29.12,NNE,23,4.0,13.0,77,0.00,,,0.00,meteohub,2013-03-25 14:15:00,
2013-03-25 10:20:00,30.9,24.3,29.12,NNE,23,6.0,13.0,76,0.00,,,0.00,meteohub,2013-03-25 14:20:00,
2013-03-25 10:25:00,30.9,24.3,29.12,NE,45,6.0,9.0,76,0.00,,,0.00,meteohub,2013-03-25 14:25:00,
2013-03-25 10:30:00,31.1,24.4,29.12,NW,315,2.0,9.0,76,0.00,,,0.00,meteohub,2013-03-25 14:30:00,
2013-03-25 10:35:00,31.3,24.3,29.12,NNW,338,4.0,17.0,75,0.00,,,0.00,meteohub,2013-03-25 14:35:00,
2013-03-25 10:40:00,31.3,24.3,29.12,SW,225,7.0,17.0,75,0.00,,,0.00,meteohub,2013-03-25 14:40:00,
2013-03-25 10:45:00,31.3,24.3,29.12,North,0,9.0,17.0,75,0.00,,,0.00,meteohub,2013-03-25 14:45:00,
2013-03-25 10:50:00,31.5,24.4,29.12,NNE,23,5.0,17.0,75,0.00,,,0.00,meteohub,2013-03-25 14:50:00,
2013-03-25 10:55:00,31.6,24.3,29.12,NNE,23,6.0,10.0,74,0.00,,,0.00,meteohub,2013-03-25 14:55:00,
2013-03-25 11:00:00,32.0,24.6,29.12,NNE,23,14.0,14.0,74,0.00,,,0.00,meteohub,2013-03-25 15:00:00,
2013-03-25 11:05:00,31.8,24.8,29.12,NNE,23,7.0,9.0,75,0.00,,,0.00,meteohub,2013-03-25 15:05:00,
2013-03-25 11:10:00,32.0,25.0,29.12,North,0,9.0,9.0,75,0.00,,,0.00,meteohub,2013-03-25 15:10:00,
2013-03-25 11:15:00,32.2,25.2,29.13,NNE,23,12.0,14.0,75,0.00,,,0.00,meteohub,2013-03-25 15:15:00,
2013-03-25 11:20:00,32.2,25.2,29.13,NE,45,12.0,14.0,75,0.00,,,0.00,meteohub,2013-03-25 15:20:00,
2013-03-25 11:25:00,32.2,25.5,29.13,North,0,5.0,12.0,76,0.00,,,0.00,meteohub,2013-03-25 15:25:00,
2013-03-25 11:30:00,32.5,25.5,29.13,NNE,23,4.0,12.0,75,0.00,,,0.00,meteohub,2013-03-25 15:30:00,
2013-03-25 11:35:00,32.9,25.9,29.13,North,0,2.0,12.0,75,0.00,,,0.00,meteohub,2013-03-25 15:35:00,
2013-03-25 11:40:00,33.3,25.5,29.13,East,90,7.0,12.0,73,0.00,,,0.00,meteohub,2013-03-25 15:40:00,
2013-03-25 11:45:00,33.6,25.9,29.13,North,0,7.0,12.0,73,0.00,,,0.00,meteohub,2013-03-25 15:45:00,
2013-03-25 11:50:00,33.6,25.5,29.13,NE,45,8.0,12.0,72,0.00,,,0.00,meteohub,2013-03-25 15:50:00,
2013-03-25 11:55:00,34.0,25.9,29.13,NNE,23,7.0,12.0,72,0.00,,,0.00,meteohub,2013-03-25 15:55:00,
2013-03-25 12:00:00,34.3,25.9,29.13,NNE,23,13.0,13.0,71,0.00,,,0.00,meteohub,2013-03-25 16:00:00,
2013-03-25 12:05:00,34.2,25.7,29.13,NNE,23,5.0,14.0,71,0.00,,,0.00,meteohub,2013-03-25 16:05:00,
2013-03-25 12:10:00,34.3,25.5,29.13,NNE,23,11.0,14.0,70,0.00,,,0.00,meteohub,2013-03-25 16:10:00,
2013-03-25 12:15:00,34.3,25.2,29.13,NNE,23,13.0,13.0,69,0.00,,,0.00,meteohub,2013-03-25 16:15:00,
2013-03-25 12:20:00,34.3,25.2,29.13,NNE,23,6.0,13.0,69,0.00,,,0.00,meteohub,2013-03-25 16:20:00,
2013-03-25 12:25:00,34.5,25.3,29.13,NNE,23,14.0,15.0,69,0.00,,,0.00,meteohub,2013-03-25 16:25:00,
2013-03-25 12:30:00,34.7,25.2,29.12,NNE,23,5.0,15.0,68,0.00,,,0.00,meteohub,2013-03-25 16:30:00,
2013-03-25 12:35:00,35.1,25.5,29.12,NNE,23,4.0,14.0,68,0.00,,,0.00,meteohub,2013-03-25 16:35:00,
2013-03-25 12:40:00,35.8,26.6,29.12,NE,45,6.0,14.0,69,0.00,,,0.00,meteohub,2013-03-25 16:40:00,
2013-03-25 12:45:00,36.0,26.4,29.12,NW,315,2.0,10.0,68,0.00,,,0.00,meteohub,2013-03-25 16:45:00,
2013-03-25 12:50:00,36.5,27.0,29.12,NNE,23,4.0,10.0,68,0.00,,,0.00,meteohub,2013-03-25 16:50:00,
2013-03-25 12:55:00,36.9,27.3,29.12,NNE,23,4.0,9.0,68,0.00,,,0.00,meteohub,2013-03-25 16:55:00,
2013-03-25 13:01:00,36.7,26.8,29.12,North,0,5.0,9.0,67,0.00,,,0.00,meteohub,2013-03-25 17:01:00,
2013-03-25 13:06:00,36.5,26.6,29.12,North,0,5.0,9.0,67,0.00,,,0.00,meteohub,2013-03-25 17:06:00,
2013-03-25 13:11:00,36.1,26.6,29.13,North,0,4.0,5.0,68,0.00,,,0.00,meteohub,2013-03-25 17:11:00,
2013-03-25 13:16:00,36.1,25.9,29.13,ENE,68,4.0,5.0,66,0.00,,,0.00,meteohub,2013-03-25 17:16:00,
2013-03-25 13:21:00,36.3,25.7,29.13,NE,45,7.0,7.0,65,0.00,,,0.00,meteohub,2013-03-25 17:21:00,
2013-03-25 13:26:00,36.7,26.1,29.13,NNE,23,13.0,13.0,65,0.00,,,0.00,meteohub,2013-03-25 17:26:00,
2013-03-25 13:31:00,36.0,25.7,29.12,NNE,23,10.0,11.0,66,0.00,,,0.00,meteohub,2013-03-25 17:31:00,
2013-03-25 13:37:00,36.0,26.1,29.12,North,0,2.0,15.0,67,0.00,,,0.00,meteohub,2013-03-25 17:37:00,
2013-03-25 13:42:00,36.3,26.4,29.12,NNW,338,3.0,15.0,67,0.00,,,0.00,meteohub,2013-03-25 17:42:00,
2013-03-25 13:47:00,36.1,26.2,29.12,North,0,4.0,15.0,67,0.00,,,0.00,meteohub,2013-03-25 17:47:00,
2013-03-25 13:52:00,36.5,26.6,29.12,North,0,7.0,15.0,67,0.00,,,0.00,meteohub,2013-03-25 17:52:00,
2013-03-25 13:57:00,36.5,26.2,29.12,NE,45,9.0,9.0,66,0.00,,,0.00,meteohub,2013-03-25 17:57:00,
2013-03-25 14:02:00,36.5,25.9,29.12,NNE,23,7.0,7.0,65,0.00,,,0.00,meteohub,2013-03-25 18:02:00,
2013-03-25 14:07:00,36.5,25.9,29.12,North,0,10.0,10.0,65,0.00,,,0.00,meteohub,2013-03-25 18:07:00,
2013-03-25 14:12:00,36.5,25.9,29.13,North,0,8.0,9.0,65,0.00,,,0.00,meteohub,2013-03-25 18:12:00,
2013-03-25 14:17:00,36.3,25.7,29.13,NE,45,10.0,17.0,65,0.00,,,0.00,meteohub,2013-03-25 18:17:00,
2013-03-25 14:22:00,36.7,26.1,29.13,NE,45,5.0,17.0,65,0.00,,,0.00,meteohub,2013-03-25 18:22:00,
2013-03-25 14:27:00,37.0,26.4,29.13,NNE,23,10.0,13.0,65,0.00,,,0.00,meteohub,2013-03-25 18:27:00,
2013-03-25 14:33:00,36.9,25.9,29.13,NNE,23,6.0,13.0,64,0.00,,,0.00,meteohub,2013-03-25 18:33:00,
2013-03-25 14:38:00,36.9,25.9,29.13,NE,45,3.0,7.0,64,0.00,,,0.00,meteohub,2013-03-25 18:38:00,
2013-03-25 14:43:00,37.4,26.4,29.13,NNE,23,9.0,13.0,64,0.00,,,0.00,meteohub,2013-03-25 18:43:00,
2013-03-25 14:48:00,37.4,25.9,29.13,North,0,6.0,13.0,63,0.00,,,0.00,meteohub,2013-03-25 18:48:00,
2013-03-25 14:53:00,37.2,25.7,29.13,South,180,8.0,12.0,63,0.00,,,0.00,meteohub,2013-03-25 18:53:00,
2013-03-25 14:58:00,37.9,26.4,29.13,NE,45,9.0,12.0,63,0.00,,,0.00,meteohub,2013-03-25 18:58:00,
2013-03-25 15:03:00,38.1,26.6,29.13,East,90,3.0,12.0,63,0.00,,,0.00,meteohub,2013-03-25 19:03:00,
2013-03-25 15:08:00,37.8,25.9,29.13,NNE,23,12.0,12.0,62,0.00,,,0.00,meteohub,2013-03-25 19:08:00,
2013-03-25 15:13:00,37.6,25.7,29.13,NE,45,8.0,12.0,62,0.00,,,0.00,meteohub,2013-03-25 19:13:00,
2013-03-25 15:18:00,37.4,25.9,29.13,NE,45,9.0,12.0,63,0.00,,,0.00,meteohub,2013-03-25 19:18:00,
2013-03-25 15:23:00,37.2,25.7,29.13,North,0,2.0,12.0,63,0.00,,,0.00,meteohub,2013-03-25 19:23:00,
2013-03-25 15:28:00,37.6,26.1,29.13,North,0,4.0,12.0,63,0.00,,,0.00,meteohub,2013-03-25 19:28:00,
2013-03-25 15:33:00,37.8,25.9,29.13,NNE,23,9.0,9.0,62,0.00,,,0.00,meteohub,2013-03-25 19:33:00,
2013-03-25 15:38:00,37.6,25.7,29.13,NE,45,9.0,9.0,62,0.00,,,0.00,meteohub,2013-03-25 19:38:00,
2013-03-25 15:43:00,37.4,25.9,29.13,NNE,23,7.0,12.0,63,0.00,,,0.00,meteohub,2013-03-25 19:43:00,
2013-03-25 15:48:00,37.2,25.7,29.13,NNE,23,9.0,12.0,63,0.00,,,0.00,meteohub,2013-03-25 19:48:00,
2013-03-25 15:53:00,37.2,25.7,29.13,North,0,4.0,12.0,63,0.00,,,0.00,meteohub,2013-03-25 19:53:00,
2013-03-25 15:58:00,37.6,26.1,29.13,NE,45,7.0,12.0,63,0.00,,,0.00,meteohub,2013-03-25 19:58:00,
2013-03-25 16:03:00,37.8,26.2,29.13,NNE,23,8.0,12.0,63,0.00,,,0.00,meteohub,2013-03-25 20:03:00,
2013-03-25 16:08:00,37.8,26.2,29.13,NE,45,6.0,12.0,63,0.00,,,0.00,meteohub,2013-03-25 20:08:00,
2013-03-25 16:13:00,37.9,26.4,29.13,NNE,23,7.0,12.0,63,0.00,,,0.00,meteohub,2013-03-25 20:13:00,
2013-03-25 16:18:00,37.9,26.4,29.13,NE,45,15.0,15.0,63,0.00,,,0.00,meteohub,2013-03-25 20:18:00,
2013-03-25 16:24:00,37.8,26.2,29.13,NNE,23,11.0,15.0,63,0.00,,,0.00,meteohub,2013-03-25 20:24:00,
2013-03-25 16:29:00,37.9,26.4,29.13,NE,45,4.0,15.0,63,0.00,,,0.00,meteohub,2013-03-25 20:29:00,
2013-03-25 16:34:00,37.9,26.4,29.13,NE,45,5.0,15.0,63,0.00,,,0.00,meteohub,2013-03-25 20:34:00,
2013-03-25 16:39:00,38.1,26.6,29.13,NNE,23,9.0,15.0,63,0.00,,,0.00,meteohub,2013-03-25 20:39:00,
2013-03-25 16:44:00,38.1,26.2,29.13,NNE,23,11.0,12.0,62,0.00,,,0.00,meteohub,2013-03-25 20:44:00,
2013-03-25 16:49:00,37.9,26.1,29.13,North,0,3.0,12.0,62,0.00,,,0.00,meteohub,2013-03-25 20:49:00,
2013-03-25 16:54:00,37.9,26.4,29.14,North,0,3.0,11.0,63,0.00,,,0.00,meteohub,2013-03-25 20:54:00,
2013-03-25 16:59:00,38.3,26.8,29.14,North,0,6.0,11.0,63,0.00,,,0.00,meteohub,2013-03-25 20:59:00,
2013-03-25 17:04:00,38.3,26.8,29.14,WNW,293,3.0,6.0,63,0.00,,,0.00,meteohub,2013-03-25 21:04:00,
2013-03-25 17:09:00,38.3,26.8,29.14,West,270,4.0,6.0,63,0.00,,,0.00,meteohub,2013-03-25 21:09:00,
2013-03-25 17:14:00,38.1,26.6,29.15,WNW,293,5.0,6.0,63,0.00,,,0.00,meteohub,2013-03-25 21:14:00,
2013-03-25 17:19:00,37.9,26.4,29.15,SW,225,3.0,6.0,63,0.00,,,0.00,meteohub,2013-03-25 21:19:00,
2013-03-25 17:24:00,37.9,26.8,29.15,WSW,248,3.0,7.0,64,0.00,,,0.00,meteohub,2013-03-25 21:24:00,
2013-03-25 17:29:00,37.8,26.6,29.15,West,270,3.0,7.0,64,0.00,,,0.00,meteohub,2013-03-25 21:29:00,
2013-03-25 17:34:00,37.6,27.0,29.15,North,0,2.0,10.0,65,0.00,,,0.00,meteohub,2013-03-25 21:34:00,
2013-03-25 17:39:00,37.2,26.6,29.15,WNW,293,0.0,10.0,65,0.00,,,0.00,meteohub,2013-03-25 21:39:00,
2013-03-25 17:44:00,37.2,26.6,29.15,WNW,293,4.0,6.0,65,0.00,,,0.00,meteohub,2013-03-25 21:44:00,
2013-03-25 17:49:00,37.0,26.8,29.15,North,0,0.0,6.0,66,0.00,,,0.00,meteohub,2013-03-25 21:49:00,
2013-03-25 17:54:00,37.0,26.8,29.16,WNW,293,3.0,4.0,66,0.00,,,0.00,meteohub,2013-03-25 21:54:00,
2013-03-25 17:59:00,37.0,26.8,29.16,NW,315,2.0,4.0,66,0.00,,,0.00,meteohub,2013-03-25 21:59:00,
2013-03-25 18:04:00,37.0,26.8,29.16,NW,315,3.0,4.0,66,0.00,,,0.00,meteohub,2013-03-25 22:04:00,
2013-03-25 18:09:00,37.0,26.8,29.16,North,0,2.0,4.0,66,0.00,,,0.00,meteohub,2013-03-25 22:09:00,
2013-03-25 18:14:00,37.0,26.8,29.15,WNW,293,3.0,3.0,66,0.00,,,0.00,meteohub,2013-03-25 22:14:00,
2013-03-25 18:19:00,37.2,27.0,29.15,SSE,158,4.0,4.0,66,0.00,,,0.00,meteohub,2013-03-25 22:19:00,
2013-03-25 18:24:00,37.2,27.0,29.15,NW,315,2.0,3.0,66,0.00,,,0.00,meteohub,2013-03-25 22:24:00,
2013-03-25 18:29:00,37.2,27.0,29.15,North,0,3.0,4.0,66,0.00,,,0.00,meteohub,2013-03-25 22:29:00,
2013-03-25 18:34:00,37.4,26.8,29.16,NE,45,2.0,4.0,65,0.00,,,0.00,meteohub,2013-03-25 22:34:00,
2013-03-25 18:39:00,37.4,26.4,29.16,North,0,3.0,4.0,64,0.00,,,0.00,meteohub,2013-03-25 22:39:00,
2013-03-25 18:44:00,37.6,27.0,29.16,WNW,293,2.0,4.0,65,0.00,,,0.00,meteohub,2013-03-25 22:44:00,
2013-03-25 18:49:00,37.4,26.4,29.16,North,0,4.0,4.0,64,0.00,,,0.00,meteohub,2013-03-25 22:49:00,
2013-03-25 18:54:00,37.6,26.6,29.17,NNE,23,0.0,7.0,64,0.00,,,0.00,meteohub,2013-03-25 22:54:00,
2013-03-25 19:00:00,37.4,26.4,29.17,NNW,338,3.0,7.0,64,0.00,,,0.00,meteohub,2013-03-25 23:00:00,
2013-03-25 19:05:00,37.4,26.4,29.17,NE,45,2.0,6.0,64,0.00,,,0.00,meteohub,2013-03-25 23:05:00,
2013-03-25 19:10:00,37.2,26.2,29.17,SSE,158,0.0,6.0,64,0.00,,,0.00,meteohub,2013-03-25 23:10:00,
2013-03-25 19:15:00,37.2,26.6,29.18,NNW,338,2.0,5.0,65,0.00,,,0.00,meteohub,2013-03-25 23:15:00,
2013-03-25 19:20:00,37.0,26.4,29.18,WNW,293,4.0,5.0,65,0.00,,,0.00,meteohub,2013-03-25 23:20:00,
2013-03-25 19:25:00,36.9,26.2,29.18,NNE,23,4.0,4.0,65,0.00,,,0.00,meteohub,2013-03-25 23:25:00,
2013-03-25 19:30:00,36.9,26.2,29.18,WNW,293,4.0,4.0,65,0.00,,,0.00,meteohub,2013-03-25 23:30:00,
2013-03-25 19:35:00,36.7,26.1,29.19,WNW,293,4.0,7.0,65,0.00,,,0.00,meteohub,2013-03-25 23:35:00,
2013-03-25 19:40:00,36.5,26.2,29.19,West,270,3.0,7.0,66,0.00,,,0.00,meteohub,2013-03-25 23:40:00,
2013-03-25 19:45:00,36.5,26.2,29.19,SW,225,5.0,5.0,66,0.00,,,0.00,meteohub,2013-03-25 23:45:00,
2013-03-25 19:50:00,36.3,26.1,29.19,North,0,0.0,4.0,66,0.00,,,0.00,meteohub,2013-03-25 23:50:00,
2013-03-25 19:55:00,36.1,26.2,29.19,NW,315,0.0,5.0,67,0.00,,,0.00,meteohub,2013-03-25 23:55:00,
2013-03-25 20:00:00,36.1,26.2,29.19,West,270,0.0,5.0,67,0.00,,,0.00,meteohub,2013-03-26 00:00:00,
2013-03-25 20:05:00,36.0,26.1,29.19,NW,315,2.0,3.0,67,0.00,,,0.00,meteohub,2013-03-26 00:05:00,
2013-03-25 20:10:00,36.0,26.4,29.19,NW,315,0.0,3.0,68,0.00,,,0.00,meteohub,2013-03-26 00:10:00,
2013-03-25 20:15:00,35.8,26.2,29.20,WNW,293,0.0,4.0,68,0.00,,,0.00,meteohub,2013-03-26 00:15:00,
2013-03-25 20:20:00,35.8,26.2,29.20,NW,315,2.0,4.0,68,0.00,,,0.00,meteohub,2013-03-26 00:20:00,
2013-03-25 20:25:00,35.6,26.1,29.20,WNW,293,4.0,4.0,68,0.00,,,0.00,meteohub,2013-03-26 00:25:00,
2013-03-25 20:30:00,35.4,26.2,29.20,WSW,248,4.0,4.0,69,0.00,,,0.00,meteohub,2013-03-26 00:30:00,
2013-03-25 20:35:00,35.1,26.2,29.21,WNW,293,3.0,4.0,70,0.00,,,0.00,meteohub,2013-03-26 00:35:00,
2013-03-25 20:40:00,34.9,26.4,29.21,West,270,2.0,4.0,71,0.00,,,0.00,meteohub,2013-03-26 00:40:00,
2013-03-25 20:45:00,34.5,26.1,29.21,West,270,2.0,4.0,71,0.00,,,0.00,meteohub,2013-03-26 00:45:00,
2013-03-25 20:50:00,34.3,26.6,29.21,West,270,0.0,4.0,73,0.00,,,0.00,meteohub,2013-03-26 00:50:00,
2013-03-25 20:55:00,34.3,26.6,29.21,East,90,2.0,6.0,73,0.00,,,0.00,meteohub,2013-03-26 00:55:00,
2013-03-25 21:00:00,34.3,26.6,29.21,NW,315,2.0,6.0,73,0.00,,,0.00,meteohub,2013-03-26 01:00:00,
2013-03-25 21:05:00,34.3,26.6,29.21,NW,315,2.0,6.0,73,0.00,,,0.00,meteohub,2013-03-26 01:05:00,
2013-03-25 21:10:00,34.3,27.0,29.21,West,270,3.0,6.0,74,0.00,,,0.00,meteohub,2013-03-26 01:10:00,
2013-03-25 21:15:00,34.3,27.0,29.22,West,270,2.0,4.0,74,0.00,,,0.00,meteohub,2013-03-26 01:15:00,
2013-03-25 21:20:00,34.3,27.0,29.22,SW,225,2.0,4.0,74,0.00,,,0.00,meteohub,2013-03-26 01:20:00,
2013-03-25 21:26:00,34.3,27.0,29.22,WNW,293,3.0,4.0,74,0.00,,,0.00,meteohub,2013-03-26 01:26:00,
2013-03-25 21:31:00,34.3,27.0,29.22,North,0,4.0,4.0,74,0.00,,,0.00,meteohub,2013-03-26 01:31:00,
2013-03-25 21:36:00,34.3,27.3,29.22,ESE,113,2.0,4.0,75,0.00,,,0.00,meteohub,2013-03-26 01:36:00,
2013-03-25 21:41:00,34.3,27.3,29.22,West,270,3.0,4.0,75,0.00,,,0.00,meteohub,2013-03-26 01:41:00,
2013-03-25 21:46:00,34.3,27.3,29.22,East,90,0.0,4.0,75,0.00,,,0.00,meteohub,2013-03-26 01:46:00,
2013-03-25 21:51:00,34.2,27.1,29.22,NW,315,3.0,4.0,75,0.00,,,0.00,meteohub,2013-03-26 01:51:00,
2013-03-25 21:56:00,34.2,27.1,29.23,North,0,3.0,3.0,75,0.00,,,0.00,meteohub,2013-03-26 01:56:00,
2013-03-25 22:01:00,34.2,27.1,29.23,North,0,2.0,3.0,75,0.00,,,0.00,meteohub,2013-03-26 02:01:00,
2013-03-25 22:06:00,34.2,27.3,29.23,North,0,3.0,4.0,76,0.00,,,0.00,meteohub,2013-03-26 02:06:00,
2013-03-25 22:11:00,34.0,27.1,29.23,WNW,293,4.0,4.0,76,0.00,,,0.00,meteohub,2013-03-26 02:11:00,
2013-03-25 22:16:00,34.0,27.5,29.23,WNW,293,4.0,6.0,77,0.00,,,0.00,meteohub,2013-03-26 02:16:00,
2013-03-25 22:22:00,34.0,27.5,29.23,NW,315,0.0,6.0,77,0.00,,,0.00,meteohub,2013-03-26 02:22:00,
2013-03-25 22:27:00,33.8,27.3,29.23,NNW,338,2.0,5.0,77,0.00,,,0.00,meteohub,2013-03-26 02:27:00,
2013-03-25 22:32:00,33.8,27.3,29.23,NW,315,5.0,5.0,77,0.00,,,0.00,meteohub,2013-03-26 02:32:00,
2013-03-25 22:37:00,33.6,27.1,29.23,NW,315,2.0,3.0,77,0.00,,,0.00,meteohub,2013-03-26 02:37:00,
2013-03-25 22:42:00,33.6,27.1,29.23,NNW,338,5.0,5.0,77,0.00,,,0.00,meteohub,2013-03-26 02:42:00,
2013-03-25 22:47:00,33.6,27.1,29.23,NNW,338,2.0,5.0,77,0.00,,,0.00,meteohub,2013-03-26 02:47:00,
2013-03-25 22:52:00,33.6,27.5,29.25,NNW,338,3.0,5.0,78,0.00,,,0.00,meteohub,2013-03-26 02:52:00,
2013-03-25 22:58:00,33.6,27.5,29.25,WNW,293,2.0,5.0,78,0.00,,,0.00,meteohub,2013-03-26 02:58:00,
2013-03-25 23:03:00,33.6,27.5,29.25,NW,315,4.0,5.0,78,0.00,,,0.00,meteohub,2013-03-26 03:03:00,
2013-03-25 23:08:00,33.4,27.3,29.25,SW,225,2.0,4.0,78,0.00,,,0.00,meteohub,2013-03-26 03:08:00,
2013-03-25 23:13:00,33.4,27.3,29.25,WNW,293,3.0,4.0,78,0.00,,,0.00,meteohub,2013-03-26 03:13:00,
2013-03-25 23:18:00,33.3,27.1,29.25,SW,225,2.0,4.0,78,0.00,,,0.00,meteohub,2013-03-26 03:18:00,
2013-03-25 23:23:00,33.3,27.1,29.25,WNW,293,3.0,4.0,78,0.00,,,0.00,meteohub,2013-03-26 03:23:00,
2013-03-25 23:28:00,33.3,27.5,29.25,West,270,6.0,6.0,79,0.00,,,0.00,meteohub,2013-03-26 03:28:00,
2013-03-25 23:33:00,33.1,27.3,29.25,WNW,293,1.0,6.0,79,0.00,,,0.00,meteohub,2013-03-26 03:33:00,
2013-03-25 23:38:00,33.1,27.3,29.25,West,270,2.0,6.0,79,0.00,,,0.00,meteohub,2013-03-26 03:38:00,
2013-03-25 23:43:00,33.1,27.3,29.25,NNW,338,3.0,6.0,79,0.00,,,0.00,meteohub,2013-03-26 03:43:00,
2013-03-25 23:48:00,33.1,27.5,29.25,West,270,0.0,6.0,80,0.00,,,0.00,meteohub,2013-03-26 03:48:00,
2013-03-25 23:54:00,32.9,27.1,29.25,WSW,248,0.0,6.0,79,0.00,,,0.00,meteohub,2013-03-26 03:54:00,
2013-03-25 23:59:00,32.9,27.1,29.26,NW,315,2.0,3.0,79,0.00,,,0.00,meteohub,2013-03-26 03:59:00,